createdAt,value
2018-05-25T00:00:30.353Z,15.86
2018-05-25T00:01:30.322Z,15.87
2018-05-25T00:02:30.308Z,15.89
2018-05-25T00:03:30.236Z,15.90
2018-05-25T00:04:30.199Z,15.90
2018-05-25T00:05:30.183Z,15.93
2018-05-25T00:06:30.127Z,15.87
2018-05-25T00:07:30.136Z,15.92
2018-05-25T00:08:30.052Z,15.92
2018-05-25T00:09:30.008Z,15.89
2018-05-25T00:10:29.967Z,15.86
2018-05-25T00:11:29.947Z,16.07
2018-05-25T00:12:29.915Z,16.02
2018-05-25T00:13:29.927Z,16.09
2018-05-25T00:14:29.847Z,16.05
2018-05-25T00:15:29.785Z,16.07
2018-05-25T00:16:40.554Z,16.25
2018-05-25T00:17:29.707Z,16.17
2018-05-25T00:18:29.680Z,16.20
2018-05-25T00:19:29.631Z,16.27
2018-05-25T00:20:29.602Z,16.20
2018-05-25T00:21:29.575Z,16.25
2018-05-25T00:22:29.512Z,16.25
2018-05-25T00:23:29.481Z,16.25
2018-05-25T00:24:29.440Z,16.20
2018-05-25T00:25:29.406Z,16.05
2018-05-25T00:26:29.411Z,16.15
2018-05-25T00:27:29.333Z,16.11
2018-05-25T00:28:29.286Z,16.05
2018-05-25T00:29:29.247Z,16.07
2018-05-25T00:30:29.209Z,16.04
2018-05-25T00:31:29.201Z,16.08
2018-05-25T00:32:29.137Z,16.04
2018-05-25T00:33:29.092Z,16.12
2018-05-25T00:34:29.055Z,16.01
2018-05-25T00:35:29.027Z,16.04
2018-05-25T00:36:29.003Z,16.00
2018-05-25T00:37:28.961Z,15.92
2018-05-25T00:38:28.915Z,16.04
2018-05-25T00:39:39.236Z,15.83
2018-05-25T00:40:28.825Z,15.90
2018-05-25T00:41:28.859Z,15.92
2018-05-25T00:42:28.756Z,15.89
2018-05-25T00:43:28.717Z,15.89
2018-05-25T00:44:28.691Z,15.92
2018-05-25T00:45:28.632Z,15.96
2018-05-25T00:46:28.616Z,16.07
2018-05-25T00:47:28.563Z,15.97
2018-05-25T00:48:28.535Z,16.02
2018-05-25T00:49:28.480Z,16.02
2018-05-25T00:50:28.474Z,16.15
2018-05-25T00:51:28.435Z,16.17
2018-05-25T00:52:28.371Z,16.07
2018-05-25T00:53:28.345Z,16.09
2018-05-25T00:54:28.302Z,16.23
2018-05-25T00:55:28.293Z,16.21
2018-05-25T00:56:28.229Z,16.23
2018-05-25T00:57:28.178Z,16.07
2018-05-25T00:58:28.140Z,16.09
2018-05-25T00:59:28.119Z,16.04
2018-05-25T01:00:28.087Z,16.11
2018-05-25T01:01:28.046Z,16.14
2018-05-25T01:02:28.007Z,16.20
2018-05-25T01:03:38.108Z,16.01
2018-05-25T01:04:27.927Z,15.96
2018-05-25T01:05:27.931Z,16.04
2018-05-25T01:06:27.844Z,16.04
2018-05-25T01:07:27.851Z,16.07
2018-05-25T01:08:27.770Z,15.96
2018-05-25T01:09:27.729Z,15.97
2018-05-25T01:10:27.731Z,15.90
2018-05-25T01:11:27.653Z,15.94
2018-05-25T01:12:27.631Z,16.02
2018-05-25T01:13:27.583Z,15.94
2018-05-25T01:14:27.548Z,15.94
2018-05-25T01:15:27.496Z,15.97
2018-05-25T01:16:27.499Z,16.04
2018-05-25T01:17:27.423Z,16.07
2018-05-25T01:18:27.397Z,16.08
2018-05-25T01:19:27.341Z,16.12
2018-05-25T01:20:27.303Z,16.09
2018-05-25T01:21:27.263Z,16.09
2018-05-25T01:22:27.251Z,16.09
2018-05-25T01:23:27.200Z,16.08
2018-05-25T01:24:27.160Z,16.21
2018-05-25T01:25:27.123Z,16.14
2018-05-25T01:26:27.091Z,16.33
2018-05-25T01:27:27.036Z,16.41
2018-05-25T01:28:27.046Z,16.46
2018-05-25T01:29:26.981Z,16.46
2018-05-25T01:30:26.944Z,16.48
2018-05-25T01:31:26.899Z,16.42
2018-05-25T01:32:26.863Z,16.52
2018-05-25T01:33:26.820Z,16.48
2018-05-25T01:34:26.794Z,16.50
2018-05-25T01:35:26.755Z,16.60
2018-05-25T01:36:39.138Z,16.60
2018-05-25T01:37:26.656Z,16.73
2018-05-25T01:38:26.643Z,16.70
2018-05-25T01:39:26.602Z,16.78
2018-05-25T01:40:26.574Z,16.71
2018-05-25T01:41:26.508Z,16.79
2018-05-25T01:42:26.473Z,16.88
2018-05-25T01:43:26.439Z,16.85
2018-05-25T01:44:26.428Z,16.94
2018-05-25T01:45:26.370Z,16.93
2018-05-25T01:46:26.361Z,17.07
2018-05-25T01:47:26.285Z,17.04
2018-05-25T01:48:26.248Z,17.06
2018-05-25T01:49:26.202Z,17.04
2018-05-25T01:50:26.194Z,17.08
2018-05-25T01:51:26.132Z,17.08
2018-05-25T01:52:26.132Z,17.08
2018-05-25T01:53:26.056Z,17.11
2018-05-25T01:54:26.047Z,17.15
2018-05-25T01:55:25.983Z,17.18
2018-05-25T01:56:25.954Z,17.16
2018-05-25T01:57:25.895Z,17.15
2018-05-25T01:58:25.860Z,17.21
2018-05-25T01:59:25.854Z,17.21
2018-05-25T02:00:25.786Z,17.16
2018-05-25T02:01:25.766Z,17.18
2018-05-25T02:02:25.723Z,17.31
2018-05-25T02:03:25.680Z,17.38
2018-05-25T02:04:25.675Z,17.40
2018-05-25T02:05:25.610Z,17.30
2018-05-25T02:06:25.580Z,17.30
2018-05-25T02:07:25.530Z,17.40
2018-05-25T02:08:25.510Z,17.38
2018-05-25T02:09:25.474Z,17.28
2018-05-25T02:10:25.426Z,17.37
2018-05-25T02:11:25.390Z,17.26
2018-05-25T02:12:35.258Z,17.30
2018-05-25T02:13:25.316Z,17.36
2018-05-25T02:14:25.448Z,17.28
2018-05-25T02:15:25.228Z,17.33
2018-05-25T02:16:25.197Z,17.16
2018-05-25T02:17:25.156Z,17.23
2018-05-25T02:18:25.114Z,17.21
2018-05-25T02:19:25.113Z,17.18
2018-05-25T02:20:25.035Z,17.21
2018-05-25T02:21:25.006Z,17.15
2018-05-25T02:22:24.959Z,17.15
2018-05-25T02:23:24.930Z,17.18
2018-05-25T02:24:24.892Z,17.14
2018-05-25T02:25:24.868Z,17.12
2018-05-25T02:26:24.811Z,17.18
2018-05-25T02:27:24.788Z,17.14
2018-05-25T02:28:24.735Z,17.14
2018-05-25T02:29:24.701Z,17.18
2018-05-25T02:30:24.682Z,17.19
2018-05-25T02:31:24.638Z,17.14
2018-05-25T02:32:24.589Z,17.19
2018-05-25T02:33:24.558Z,17.21
2018-05-25T02:34:24.505Z,17.16
2018-05-25T02:35:24.475Z,17.16
2018-05-25T02:36:24.470Z,17.18
2018-05-25T02:37:24.412Z,17.16
2018-05-25T02:38:24.368Z,17.16
2018-05-25T02:39:24.325Z,17.19
2018-05-25T02:40:24.281Z,17.15
2018-05-25T02:41:24.240Z,17.21
2018-05-25T02:42:24.236Z,17.21
2018-05-25T02:43:24.170Z,17.16
2018-05-25T02:44:24.140Z,17.08
2018-05-25T02:45:24.096Z,17.12
2018-05-25T02:46:24.071Z,17.03
2018-05-25T02:47:24.023Z,17.04
2018-05-25T02:48:24.011Z,17.06
2018-05-25T02:49:23.951Z,17.04
2018-05-25T02:50:23.910Z,17.01
2018-05-25T02:51:23.865Z,16.96
2018-05-25T02:52:23.835Z,16.94
2018-05-25T02:53:23.791Z,16.89
2018-05-25T02:54:23.809Z,16.97
2018-05-25T02:55:23.737Z,16.98
2018-05-25T02:56:23.687Z,16.98
2018-05-25T02:57:23.649Z,16.96
2018-05-25T02:58:23.621Z,16.93
2018-05-25T02:59:23.562Z,16.88
2018-05-25T03:00:23.574Z,16.85
2018-05-25T03:01:23.492Z,16.88
2018-05-25T03:02:23.449Z,16.93
2018-05-25T03:03:23.433Z,16.83
2018-05-25T03:04:23.381Z,16.83
2018-05-25T03:05:23.361Z,16.73
2018-05-25T03:06:23.301Z,16.76
2018-05-25T03:07:23.278Z,16.78
2018-05-25T03:08:23.239Z,16.73
2018-05-25T03:09:23.202Z,16.73
2018-05-25T03:10:23.186Z,16.70
2018-05-25T03:11:23.106Z,16.57
2018-05-25T03:12:23.084Z,16.64
2018-05-25T03:13:23.044Z,16.53
2018-05-25T03:14:22.997Z,16.52
2018-05-25T03:15:22.976Z,16.52
2018-05-25T03:16:22.947Z,16.45
2018-05-25T03:17:22.900Z,16.49
2018-05-25T03:18:22.872Z,16.45
2018-05-25T03:19:22.826Z,16.39
2018-05-25T03:20:22.775Z,16.41
2018-05-25T03:21:22.791Z,16.33
2018-05-25T03:22:22.729Z,16.33
2018-05-25T03:23:22.660Z,16.31
2018-05-25T03:24:22.634Z,16.27
2018-05-25T03:25:22.594Z,16.12
2018-05-25T03:26:22.552Z,16.07
2018-05-25T03:27:22.539Z,16.17
2018-05-25T03:28:22.473Z,16.05
2018-05-25T03:29:22.433Z,16.12
2018-05-25T03:30:22.414Z,16.11
2018-05-25T03:31:22.384Z,16.04
2018-05-25T03:32:22.314Z,16.07
2018-05-25T03:33:22.317Z,16.05
2018-05-25T03:34:22.253Z,16.07
2018-05-25T03:35:22.215Z,15.96
2018-05-25T03:36:22.173Z,15.90
2018-05-25T03:37:22.136Z,15.87
2018-05-25T03:38:22.093Z,15.93
2018-05-25T03:39:22.090Z,15.89
2018-05-25T03:40:22.019Z,15.93
2018-05-25T03:41:21.996Z,15.84
2018-05-25T03:42:21.949Z,15.71
2018-05-25T03:43:21.899Z,15.80
2018-05-25T03:44:21.863Z,15.78
2018-05-25T03:45:21.839Z,15.80
2018-05-25T03:46:31.220Z,15.83
2018-05-25T03:47:21.750Z,15.74
2018-05-25T03:48:21.713Z,15.72
2018-05-25T03:49:21.700Z,15.76
2018-05-25T03:50:21.667Z,15.72
2018-05-25T03:51:21.597Z,15.69
2018-05-25T03:52:21.580Z,15.67
2018-05-25T03:53:21.523Z,15.72
2018-05-25T03:54:21.475Z,15.69
2018-05-25T03:55:21.562Z,15.75
2018-05-25T03:56:21.443Z,15.74
2018-05-25T03:57:21.376Z,15.80
2018-05-25T03:58:21.344Z,15.65
2018-05-25T03:59:21.310Z,15.75
2018-05-25T04:00:21.261Z,15.72
2018-05-25T04:01:21.211Z,15.74
2018-05-25T04:02:21.192Z,15.78
2018-05-25T04:03:21.146Z,15.71
2018-05-25T04:04:21.103Z,15.67
2018-05-25T04:05:21.067Z,15.74
2018-05-25T04:06:21.044Z,15.74
2018-05-25T04:07:21.041Z,15.67
2018-05-25T04:08:20.979Z,15.80
2018-05-25T04:09:20.924Z,15.84
2018-05-25T04:10:31.254Z,15.82
2018-05-25T04:11:20.830Z,15.82
2018-05-25T04:12:21.102Z,15.75
2018-05-25T04:13:20.775Z,15.86
2018-05-25T04:14:20.754Z,15.94
2018-05-25T04:15:20.721Z,16.05
2018-05-25T04:16:20.653Z,15.97
2018-05-25T04:17:20.633Z,16.05
2018-05-25T04:18:20.571Z,16.04
2018-05-25T04:19:20.525Z,16.02
2018-05-25T04:20:20.490Z,16.04
2018-05-25T04:21:30.799Z,16.05
2018-05-25T04:22:20.435Z,16.14
2018-05-25T04:23:20.389Z,16.20
2018-05-25T04:24:20.347Z,16.09
2018-05-25T04:25:20.307Z,16.15
2018-05-25T04:26:20.259Z,16.11
2018-05-25T04:27:20.223Z,16.15
2018-05-25T04:28:20.213Z,16.09
2018-05-25T04:29:20.149Z,16.21
2018-05-25T04:30:20.109Z,16.17
2018-05-25T04:31:20.067Z,16.28
2018-05-25T04:32:31.332Z,16.33
2018-05-25T04:33:19.985Z,16.42
2018-05-25T04:34:19.975Z,16.48
2018-05-25T04:35:19.928Z,16.53
2018-05-25T04:36:19.884Z,16.60
2018-05-25T04:37:19.846Z,16.70
2018-05-25T04:38:19.846Z,16.76
2018-05-25T04:39:19.762Z,16.89
2018-05-25T04:40:19.738Z,17.04
2018-05-25T04:41:19.687Z,17.11
2018-05-25T04:42:19.665Z,17.33
2018-05-25T04:43:19.619Z,17.71
2018-05-25T04:44:19.608Z,17.84
2018-05-25T04:45:19.561Z,18.14
2018-05-25T04:46:19.509Z,18.45
2018-05-25T04:47:19.462Z,18.72
2018-05-25T04:48:19.430Z,18.95
2018-05-25T04:49:19.399Z,19.19
2018-05-25T04:50:19.390Z,19.37
2018-05-25T04:51:19.317Z,19.47
2018-05-25T04:52:19.290Z,19.73
2018-05-25T04:53:19.279Z,19.95
2018-05-25T04:54:19.204Z,20.14
2018-05-25T04:55:19.171Z,20.32
2018-05-25T04:56:28.882Z,20.72
2018-05-25T04:57:19.082Z,21.04
2018-05-25T04:58:19.099Z,21.49
2018-05-25T04:59:19.025Z,21.49
2018-05-25T05:00:19.002Z,21.69
2018-05-25T05:01:18.955Z,22.12
2018-05-25T05:02:18.954Z,21.96
2018-05-25T05:03:18.875Z,22.00
2018-05-25T05:04:18.834Z,22.18
2018-05-25T05:05:18.823Z,22.15
2018-05-25T05:06:18.783Z,22.07
2018-05-25T05:07:18.730Z,22.09
2018-05-25T05:08:18.738Z,22.21
2018-05-25T05:09:18.654Z,22.15
2018-05-25T05:10:18.608Z,22.35
2018-05-25T05:11:18.596Z,22.31
2018-05-25T05:12:18.560Z,22.97
2018-05-25T05:13:18.545Z,23.09
2018-05-25T05:14:18.482Z,23.32
2018-05-25T05:15:18.441Z,23.31
2018-05-25T05:16:18.422Z,23.55
2018-05-25T05:17:18.374Z,23.61
2018-05-25T05:18:18.338Z,23.70
2018-05-25T05:19:27.870Z,23.79
2018-05-25T05:20:18.265Z,23.61
2018-05-25T05:21:18.234Z,23.38
2018-05-25T05:22:18.208Z,23.38
2018-05-25T05:23:18.183Z,23.48
2018-05-25T05:24:18.146Z,23.84
2018-05-25T05:25:18.160Z,24.27
2018-05-25T05:26:18.096Z,24.24
2018-05-25T05:27:18.048Z,24.32
2018-05-25T05:28:18.425Z,24.61
2018-05-25T05:29:17.973Z,25.05
2018-05-25T05:30:17.922Z,25.17
2018-05-25T05:31:17.929Z,25.54
2018-05-25T05:32:17.867Z,25.64
2018-05-25T05:33:17.825Z,25.18
2018-05-25T05:34:17.775Z,25.00
2018-05-25T05:35:17.769Z,25.45
2018-05-25T05:36:17.730Z,25.15
2018-05-25T05:37:17.716Z,25.45
2018-05-25T05:38:17.660Z,25.51
2018-05-25T05:39:17.614Z,25.51
2018-05-25T05:40:17.594Z,25.47
2018-05-25T05:41:17.550Z,25.62
2018-05-25T05:42:17.514Z,25.62
2018-05-25T05:43:27.920Z,26.07
2018-05-25T05:44:17.456Z,26.45
2018-05-25T05:45:17.410Z,26.97
2018-05-25T05:46:17.372Z,27.43
2018-05-25T05:47:17.348Z,27.96
2018-05-25T05:48:17.312Z,28.18
2018-05-25T05:49:17.299Z,28.41
2018-05-25T05:50:17.241Z,28.41
2018-05-25T05:51:17.225Z,28.78
2018-05-25T05:52:17.179Z,28.95
2018-05-25T05:53:17.150Z,29.06
2018-05-25T05:54:17.117Z,29.06
2018-05-25T05:55:17.125Z,28.56
2018-05-25T05:56:17.049Z,28.00
2018-05-25T05:57:17.010Z,27.72
2018-05-25T05:58:16.978Z,27.69
2018-05-25T05:59:16.950Z,28.14
2018-05-25T06:00:16.929Z,28.76
2018-05-25T06:01:16.929Z,28.93
2018-05-25T06:02:16.859Z,29.27
2018-05-25T06:03:16.832Z,28.96
2018-05-25T06:04:16.806Z,27.67
2018-05-25T06:05:16.774Z,28.14
2018-05-25T06:06:16.768Z,28.39
2018-05-25T06:07:16.739Z,29.05
2018-05-25T06:08:16.699Z,29.49
2018-05-25T06:09:16.641Z,29.28
2018-05-25T06:10:16.612Z,28.25
2018-05-25T06:11:16.581Z,28.76
2018-05-25T06:12:16.535Z,28.89
2018-05-25T06:13:16.538Z,27.99
2018-05-25T06:14:16.476Z,27.59
2018-05-25T06:15:16.449Z,27.25
2018-05-25T06:16:16.410Z,27.04
2018-05-25T06:17:16.371Z,26.52
2018-05-25T06:18:16.354Z,26.54
2018-05-25T06:19:16.344Z,26.77
2018-05-25T06:20:16.280Z,27.44
2018-05-25T06:21:16.248Z,27.25
2018-05-25T06:22:16.242Z,27.41
2018-05-25T06:23:16.186Z,27.79
2018-05-25T06:24:16.156Z,27.39
2018-05-25T06:25:16.179Z,26.99
2018-05-25T06:26:16.104Z,27.41
2018-05-25T06:27:16.099Z,26.43
2018-05-25T06:28:16.059Z,25.98
2018-05-25T06:29:16.020Z,26.40
2018-05-25T06:30:15.966Z,26.67
2018-05-25T06:31:15.944Z,26.63
2018-05-25T06:32:15.903Z,27.13
2018-05-25T06:33:15.863Z,27.29
2018-05-25T06:34:15.842Z,27.13
2018-05-25T06:35:15.796Z,27.70
2018-05-25T06:36:15.791Z,28.04
2018-05-25T06:37:15.762Z,28.40
2018-05-25T06:38:15.712Z,28.49
2018-05-25T06:39:15.673Z,29.06
2018-05-25T06:40:15.656Z,29.57
2018-05-25T06:41:15.641Z,29.60
2018-05-25T06:42:15.591Z,29.78
2018-05-25T06:43:15.537Z,28.92
2018-05-25T06:44:15.530Z,28.92
2018-05-25T06:45:15.511Z,28.90
2018-05-25T06:46:15.474Z,28.77
2018-05-25T06:47:15.428Z,28.46
2018-05-25T06:48:15.407Z,28.43
2018-05-25T06:49:15.356Z,28.95
2018-05-25T06:50:15.358Z,29.02
2018-05-25T06:51:15.316Z,28.95
2018-05-25T06:52:15.287Z,28.41
2018-05-25T06:53:15.248Z,29.24
2018-05-25T06:54:15.196Z,29.61
2018-05-25T06:55:15.162Z,29.71
2018-05-25T06:56:15.164Z,29.70
2018-05-25T06:57:15.148Z,30.00
2018-05-25T06:58:15.083Z,29.65
2018-05-25T06:59:15.046Z,28.98
2018-05-25T07:00:15.012Z,28.67
2018-05-25T07:01:14.986Z,29.05
2018-05-25T07:02:14.939Z,29.46
2018-05-25T07:03:15.015Z,29.19
2018-05-25T07:04:14.874Z,29.33
2018-05-25T07:05:14.851Z,29.57
2018-05-25T07:06:14.819Z,30.11
2018-05-25T07:07:14.785Z,29.87
2018-05-25T07:08:14.764Z,30.29
2018-05-25T07:09:14.774Z,30.34
2018-05-25T07:10:14.727Z,30.24
2018-05-25T07:11:14.672Z,29.39
2018-05-25T07:12:14.637Z,29.92
2018-05-25T07:13:14.586Z,30.39
2018-05-25T07:14:14.554Z,30.83
2018-05-25T07:15:14.578Z,30.35
2018-05-25T07:16:14.506Z,30.19
2018-05-25T07:17:14.471Z,30.31
2018-05-25T07:18:23.962Z,30.34
2018-05-25T07:19:14.406Z,30.23
2018-05-25T07:20:14.385Z,29.73
2018-05-25T07:21:14.581Z,30.53
2018-05-25T07:22:14.313Z,30.15
2018-05-25T07:23:14.284Z,30.64
2018-05-25T07:24:14.251Z,30.91
2018-05-25T07:25:14.222Z,30.11
2018-05-25T07:26:14.191Z,30.17
2018-05-25T07:27:14.192Z,30.26
2018-05-25T07:28:14.143Z,30.46
2018-05-25T07:29:14.102Z,30.00
2018-05-25T07:30:14.067Z,29.23
2018-05-25T07:31:14.033Z,29.23
2018-05-25T07:32:13.996Z,29.09
2018-05-25T07:33:13.995Z,28.61
2018-05-25T07:34:13.943Z,27.65
2018-05-25T07:35:13.920Z,27.74
2018-05-25T07:36:13.893Z,27.90
2018-05-25T07:37:13.845Z,27.28
2018-05-25T07:38:13.812Z,26.85
2018-05-25T07:39:13.852Z,27.14
2018-05-25T07:40:13.780Z,26.63
2018-05-25T07:41:25.481Z,26.60
2018-05-25T07:42:13.693Z,26.47
2018-05-25T07:43:13.693Z,26.13
2018-05-25T07:44:13.781Z,25.72
2018-05-25T07:45:13.606Z,25.17
2018-05-25T07:46:13.583Z,25.30
2018-05-25T07:47:13.548Z,25.36
2018-05-25T07:48:13.530Z,25.45
2018-05-25T07:49:13.485Z,25.17
2018-05-25T07:50:13.473Z,25.08
2018-05-25T07:51:13.415Z,24.73
2018-05-25T07:52:13.388Z,24.91
2018-05-25T07:53:13.347Z,25.23
2018-05-25T07:54:13.320Z,25.50
2018-05-25T07:55:13.303Z,25.92
2018-05-25T07:56:13.259Z,26.10
2018-05-25T07:57:13.233Z,26.36
2018-05-25T07:58:13.198Z,26.60
2018-05-25T07:59:13.210Z,26.94
2018-05-25T08:00:13.183Z,27.06
2018-05-25T08:01:13.107Z,27.29
2018-05-25T08:02:13.062Z,26.37
2018-05-25T08:03:13.219Z,26.50
2018-05-25T08:04:13.005Z,26.23
2018-05-25T08:05:12.977Z,25.83
2018-05-25T08:06:12.965Z,25.70
2018-05-25T08:07:12.912Z,25.62
2018-05-25T08:08:12.872Z,25.85
2018-05-25T08:09:12.843Z,25.58
2018-05-25T08:10:12.816Z,25.54
2018-05-25T08:11:12.785Z,25.69
2018-05-25T08:12:12.828Z,25.87
2018-05-25T08:13:12.721Z,25.18
2018-05-25T08:14:12.683Z,25.85
2018-05-25T08:15:12.667Z,25.60
2018-05-25T08:16:12.633Z,25.69
2018-05-25T08:17:12.607Z,25.36
2018-05-25T08:18:12.600Z,25.23
2018-05-25T08:19:12.555Z,25.03
2018-05-25T08:20:12.521Z,25.08
2018-05-25T08:21:12.478Z,25.33
2018-05-25T08:22:12.448Z,25.51
2018-05-25T08:23:12.571Z,25.36
2018-05-25T08:24:12.419Z,25.46
2018-05-25T08:25:12.344Z,25.82
2018-05-25T08:26:12.304Z,26.01
2018-05-25T08:27:24.047Z,26.32
2018-05-25T08:28:12.458Z,25.79
2018-05-25T08:29:12.240Z,25.42
2018-05-25T08:30:12.602Z,25.38
2018-05-25T08:31:12.148Z,24.76
2018-05-25T08:32:12.122Z,24.58
2018-05-25T08:33:12.087Z,24.62
2018-05-25T08:34:12.055Z,25.09
2018-05-25T08:35:12.026Z,24.67
2018-05-25T08:36:12.032Z,24.88
2018-05-25T08:37:11.952Z,25.06
2018-05-25T08:38:11.936Z,25.50
2018-05-25T08:39:11.918Z,25.32
2018-05-25T08:40:11.879Z,25.52
2018-05-25T08:41:11.849Z,25.09
2018-05-25T08:42:11.843Z,24.96
2018-05-25T08:43:11.785Z,25.85
2018-05-25T08:44:11.751Z,26.80
2018-05-25T08:45:11.713Z,26.70
2018-05-25T08:46:11.701Z,26.39
2018-05-25T08:47:11.681Z,26.65
2018-05-25T08:48:11.671Z,27.46
2018-05-25T08:49:11.652Z,26.63
2018-05-25T08:50:11.577Z,26.39
2018-05-25T08:51:11.549Z,25.99
2018-05-25T08:52:11.612Z,25.52
2018-05-25T08:53:11.483Z,25.92
2018-05-25T08:54:11.501Z,25.94
2018-05-25T08:55:11.499Z,25.94
2018-05-25T08:56:11.535Z,26.35
2018-05-25T08:57:11.497Z,26.35
2018-05-25T08:58:11.507Z,26.09
2018-05-25T08:59:11.500Z,25.28
2018-05-25T09:00:11.517Z,25.17
2018-05-25T09:01:11.433Z,25.92
2018-05-25T09:02:11.415Z,26.36
2018-05-25T09:03:11.176Z,27.10
2018-05-25T09:04:11.146Z,27.31
2018-05-25T09:05:11.105Z,27.57
2018-05-25T09:06:11.112Z,28.44
2018-05-25T09:07:11.053Z,29.08
2018-05-25T09:08:11.022Z,29.57
2018-05-25T09:09:10.978Z,29.97
2018-05-25T09:10:10.965Z,29.78
2018-05-25T09:11:10.933Z,29.42
2018-05-25T09:12:10.935Z,28.71
2018-05-25T09:13:10.869Z,28.56
2018-05-25T09:14:10.834Z,27.96
2018-05-25T09:15:10.813Z,28.18
2018-05-25T09:16:10.779Z,27.88
2018-05-25T09:17:10.763Z,27.69
2018-05-25T09:18:10.747Z,28.43
2018-05-25T09:19:10.693Z,28.76
2018-05-25T09:20:10.673Z,27.93
2018-05-25T09:21:10.642Z,28.36
2018-05-25T09:22:10.611Z,27.87
2018-05-25T09:23:10.575Z,28.11
2018-05-25T09:24:10.570Z,28.70
2018-05-25T09:25:10.539Z,29.00
2018-05-25T09:26:10.500Z,29.63
2018-05-25T09:27:10.471Z,29.34
2018-05-25T09:28:10.446Z,29.05
2018-05-25T09:29:10.436Z,28.48
2018-05-25T09:30:10.394Z,28.68
2018-05-25T09:31:10.370Z,28.73
2018-05-25T09:32:10.337Z,29.06
2018-05-25T09:33:10.328Z,28.31
2018-05-25T09:34:10.307Z,28.37
2018-05-25T09:35:10.255Z,28.90
2018-05-25T09:36:10.234Z,29.24
2018-05-25T09:37:10.204Z,29.67
2018-05-25T09:38:10.174Z,29.02
2018-05-25T09:39:10.191Z,28.27
2018-05-25T09:40:10.155Z,28.19
2018-05-25T09:41:10.092Z,28.22
2018-05-25T09:42:10.076Z,28.37
2018-05-25T09:43:10.052Z,28.21
2018-05-25T09:44:10.037Z,28.48
2018-05-25T09:45:10.001Z,28.58
2018-05-25T09:46:10.010Z,28.98
2018-05-25T09:47:09.942Z,29.06
2018-05-25T09:48:09.922Z,29.18
2018-05-25T09:49:09.894Z,28.41
2018-05-25T09:50:09.882Z,28.93
2018-05-25T09:51:09.877Z,29.34
2018-05-25T09:52:09.852Z,29.24
2018-05-25T09:53:09.801Z,28.95
2018-05-25T09:54:09.761Z,28.11
2018-05-25T09:55:09.723Z,27.87
2018-05-25T09:56:09.777Z,27.99
2018-05-25T09:57:09.710Z,28.49
2018-05-25T09:58:09.661Z,28.36
2018-05-25T09:59:09.620Z,28.77
2018-05-25T10:00:09.605Z,29.18
2018-05-25T10:01:09.575Z,29.79
2018-05-25T10:02:20.211Z,29.64
2018-05-25T10:03:11.958Z,30.31
2018-05-25T10:04:11.928Z,30.11
2018-05-25T10:05:09.495Z,30.27
2018-05-25T10:06:09.472Z,30.84
2018-05-25T10:07:09.664Z,30.60
2018-05-25T10:08:09.426Z,30.02
2018-05-25T10:09:09.371Z,29.37
2018-05-25T10:10:09.348Z,29.26
2018-05-25T10:11:09.320Z,29.18
2018-05-25T10:12:09.294Z,29.57
2018-05-25T10:13:09.281Z,29.39
2018-05-25T10:14:09.288Z,29.24
2018-05-25T10:15:09.221Z,28.90
2018-05-25T10:16:09.194Z,28.73
2018-05-25T10:17:09.160Z,28.31
2018-05-25T10:18:09.143Z,28.88
2018-05-25T10:19:09.123Z,28.77
2018-05-25T10:20:09.126Z,29.18
2018-05-25T10:21:09.077Z,28.78
2018-05-25T10:22:09.057Z,28.67
2018-05-25T10:23:09.042Z,28.67
2018-05-25T10:24:08.999Z,28.78
2018-05-25T10:25:09.008Z,29.05
2018-05-25T10:26:08.962Z,28.70
2018-05-25T10:27:08.952Z,28.66
2018-05-25T10:28:08.910Z,28.37
2018-05-25T10:29:08.886Z,28.09
2018-05-25T10:30:08.865Z,28.55
2018-05-25T10:31:08.865Z,27.74
2018-05-25T10:32:08.806Z,27.43
2018-05-25T10:33:08.814Z,26.80
2018-05-25T10:34:19.248Z,26.37
2018-05-25T10:35:08.814Z,25.98
2018-05-25T10:36:08.725Z,25.91
2018-05-25T10:37:08.718Z,25.98
2018-05-25T10:38:08.653Z,25.95
2018-05-25T10:39:08.620Z,25.85
2018-05-25T10:40:08.612Z,25.95
2018-05-25T10:41:08.618Z,25.82
2018-05-25T10:42:08.548Z,25.77
2018-05-25T10:43:08.559Z,25.85
2018-05-25T10:44:08.491Z,25.76
2018-05-25T10:45:08.445Z,25.54
2018-05-25T10:46:08.419Z,26.20
2018-05-25T10:47:08.379Z,26.62
2018-05-25T10:48:08.383Z,26.91
2018-05-25T10:49:15.930Z,27.34
2018-05-25T10:50:08.304Z,26.81
2018-05-25T10:51:08.283Z,26.63
2018-05-25T10:52:08.255Z,26.47
2018-05-25T10:53:08.252Z,26.45
2018-05-25T10:54:08.278Z,26.39
2018-05-25T10:55:08.156Z,27.04
2018-05-25T10:56:08.132Z,27.47
2018-05-25T10:57:08.093Z,27.92
2018-05-25T10:58:08.059Z,28.03
2018-05-25T10:59:08.037Z,27.72
2018-05-25T11:00:08.023Z,27.60
2018-05-25T11:01:07.979Z,27.59
2018-05-25T11:02:07.953Z,27.07
2018-05-25T11:03:07.915Z,26.94
2018-05-25T11:04:07.891Z,27.39
2018-05-25T11:05:07.883Z,27.87
2018-05-25T11:06:07.823Z,27.47
2018-05-25T11:07:07.796Z,27.63
2018-05-25T11:08:07.786Z,27.75
2018-05-25T11:09:07.776Z,27.99
2018-05-25T11:10:07.759Z,28.22
2018-05-25T11:11:07.679Z,28.59
2018-05-25T11:12:07.658Z,28.76
2018-05-25T11:13:07.630Z,29.00
2018-05-25T11:14:07.612Z,29.34
2018-05-25T11:15:07.582Z,29.63
2018-05-25T11:16:17.946Z,30.10
2018-05-25T11:17:07.509Z,29.61
2018-05-25T11:18:07.503Z,28.93
2018-05-25T11:19:07.476Z,29.05
2018-05-25T11:20:07.448Z,29.19
2018-05-25T11:21:07.409Z,29.16
2018-05-25T11:22:07.445Z,28.93
2018-05-25T11:23:07.386Z,29.19
2018-05-25T11:24:07.328Z,29.09
2018-05-25T11:25:07.316Z,29.33
2018-05-25T11:26:07.313Z,29.05
2018-05-25T11:27:07.257Z,29.23
2018-05-25T11:28:07.265Z,29.05
2018-05-25T11:29:07.224Z,28.74
2018-05-25T11:30:07.186Z,28.98
2018-05-25T11:31:07.180Z,28.92
2018-05-25T11:32:07.151Z,29.23
2018-05-25T11:33:07.114Z,29.19
2018-05-25T11:34:07.134Z,29.04
2018-05-25T11:35:07.072Z,28.70
2018-05-25T11:36:07.054Z,28.34
2018-05-25T11:37:07.012Z,27.92
2018-05-25T11:38:06.992Z,27.78
2018-05-25T11:39:06.984Z,27.87
2018-05-25T11:40:06.983Z,28.18
2018-05-25T11:41:06.920Z,28.33
2018-05-25T11:42:06.890Z,27.94
2018-05-25T11:43:06.884Z,27.65
2018-05-25T11:44:06.843Z,27.93
2018-05-25T11:45:06.830Z,28.22
2018-05-25T11:46:06.823Z,28.06
2018-05-25T11:47:06.752Z,28.27
2018-05-25T11:48:06.733Z,28.30
2018-05-25T11:49:06.715Z,28.41
2018-05-25T11:50:06.671Z,28.70
2018-05-25T11:51:06.659Z,28.76
2018-05-25T11:52:06.664Z,29.08
2018-05-25T11:53:06.648Z,29.26
2018-05-25T11:54:06.599Z,29.24
2018-05-25T11:55:06.566Z,29.58
2018-05-25T11:56:06.527Z,30.04
2018-05-25T11:57:06.509Z,30.10
2018-05-25T11:58:06.514Z,30.02
2018-05-25T11:59:06.453Z,30.01
2018-05-25T12:00:06.433Z,30.31
2018-05-25T12:01:06.420Z,30.27
2018-05-25T12:02:06.412Z,30.01
2018-05-25T12:03:06.375Z,30.04
2018-05-25T12:04:06.377Z,29.60
2018-05-25T12:05:06.339Z,29.65
2018-05-25T12:06:06.301Z,29.43
2018-05-25T12:07:06.272Z,29.21
2018-05-25T12:08:06.254Z,29.14
2018-05-25T12:09:06.230Z,29.37
2018-05-25T12:10:06.227Z,28.96
2018-05-25T12:11:06.235Z,28.67
2018-05-25T12:12:06.162Z,28.33
2018-05-25T12:13:06.131Z,28.07
2018-05-25T12:14:06.110Z,28.02
2018-05-25T12:15:06.091Z,28.19
2018-05-25T12:16:06.098Z,27.96
2018-05-25T12:17:06.047Z,27.70
2018-05-25T12:18:06.018Z,27.32
2018-05-25T12:19:05.980Z,27.06
2018-05-25T12:20:05.957Z,27.04
2018-05-25T12:21:05.925Z,26.91
2018-05-25T12:22:05.930Z,26.54
2018-05-25T12:23:05.883Z,26.55
2018-05-25T12:24:05.864Z,26.57
2018-05-25T12:25:16.286Z,26.57
2018-05-25T12:26:05.794Z,26.36
2018-05-25T12:27:05.791Z,26.30
2018-05-25T12:28:05.786Z,26.36
2018-05-25T12:29:05.726Z,26.48
2018-05-25T12:30:05.689Z,26.62
2018-05-25T12:31:05.646Z,26.62
2018-05-25T12:32:05.672Z,26.60
2018-05-25T12:33:05.633Z,26.44
2018-05-25T12:34:05.591Z,26.39
2018-05-25T12:35:05.542Z,26.28
2018-05-25T12:36:05.513Z,26.21
2018-05-25T12:37:05.510Z,26.21
2018-05-25T12:38:05.449Z,26.32
2018-05-25T12:39:05.513Z,26.43
2018-05-25T12:40:05.383Z,26.33
2018-05-25T12:41:05.347Z,26.40
2018-05-25T12:42:05.329Z,26.57
2018-05-25T12:43:05.402Z,26.80
2018-05-25T12:44:05.256Z,27.02
2018-05-25T12:45:05.262Z,27.03
2018-05-25T12:46:05.228Z,27.10
2018-05-25T12:47:05.201Z,26.84
2018-05-25T12:48:05.136Z,27.06
2018-05-25T12:49:15.344Z,27.24
2018-05-25T12:50:05.067Z,27.46
2018-05-25T12:51:05.120Z,27.37
2018-05-25T12:52:05.008Z,27.37